This is the latest recevied weather packets stored in our database for station/object AK6OS. If no packets are shown the sender has not sent any weather packets the latest 10 day(s).
| Time | Temp. | Humidity | Pressure | Rain* | Wind** | Luminosity | Snow |
|---|---|---|---|---|---|---|---|
| 1777835720 | 19.44° C | 56% | 1016.2 hPa | 0 mm | - | 945 W/m² | - |
| 1777830915 | 17.22° C | 61% | 1016.5 hPa | 0 mm | - | 435 W/m² | - |
| 1777829716 | 17.22° C | 64% | 1016.6 hPa | 0 mm | - | 343 W/m² | - |
| 1777826117 | 16.11° C | 73% | 1016.2 hPa | 0 mm | - | 278 W/m² | - |
| 1777823118 | 15° C | 76% | 1016 hPa | 0 mm | - | 203 W/m² | - |
| 1777818317 | 13.33° C | 88% | 1015.4 hPa | 0 mm | - | 87 W/m² | - |
| 1777817117 | 12.78° C | 89% | 1015.3 hPa | 0 mm | - | 37 W/m² | - |
| 1777813518 | 12.78° C | 89% | 1014.6 hPa | 0 mm | - | 1 W/m² | - |
| 1777811116 | 12.78° C | 88% | 1014.4 hPa | 0 mm | - | 0 W/m² | - |
| 1777808737 | 12.78° C | 89% | 1014.3 hPa | 0 mm | - | 0 W/m² | - |
| 1777797317 | 13.33° C | 86% | 1014.9 hPa | 0 mm | - | 0 W/m² | - |
| 1777788316 | 12.22° C | 90% | 1014.6 hPa | 0 mm | - | 0 W/m² | - |
| 1777784737 | 11.67° C | 90% | 1014.3 hPa | 0 mm | - | 0 W/m² | - |
| 1777783518 | 12.22° C | 89% | 1014.1 hPa | 0 mm | - | 0 W/m² | - |
| 1777778716 | 13.33° C | 86% | 1013.7 hPa | 0 mm | - | 0 W/m² | - |
| 1777777516 | 13.89° C | 85% | 1013.6 hPa | 0 mm | - | 1 W/m² | - |
| 1777775716 | 15° C | 82% | 1013.2 hPa | 0 mm | - | 13 W/m² | - |
| 1777773917 | 16.11° C | 76% | 1013.3 hPa | 0 mm | - | 67 W/m² | - |
| 1777773319 | 16.67° C | 74% | 1013.3 hPa | 0 mm | - | 91 W/m² | - |
| 1777771518 | 17.22° C | 71% | 1013.4 hPa | 0 mm | - | 177 W/m² | - |
| 1777769118 | 18.89° C | 66% | 1013.6 hPa | 0 mm | - | 312 W/m² | - |
| 1777753517 | 18.33° C | 70% | 1016.1 hPa | 0 mm | - | 660 W/m² | - |
| 1777752317 | 18.33° C | 70% | 1016.4 hPa | 0 mm | - | 629 W/m² | - |
| 1777745717 | 15° C | 81% | 1017.4 hPa | 0 mm | - | 362 W/m² | - |
| 1777742117 | 13.89° C | 87% | 1017.2 hPa | 0 mm | - | 143 W/m² | - |
* Rain latest hour (hover to see other rain measurements)
** Current wind speed in m/s (hover to see current wind gust speed)